createdAt,value
2024-04-08T00:00:41.334Z,18.17
2024-04-08T00:03:08.777Z,18.09
2024-04-08T00:05:36.089Z,18.00
2024-04-08T00:08:03.421Z,17.85
2024-04-08T00:10:30.731Z,17.82
2024-04-08T00:12:58.068Z,17.82
2024-04-08T00:15:25.420Z,17.80
2024-04-08T00:17:52.853Z,17.88
2024-04-08T00:20:21.023Z,17.81
2024-04-08T00:22:52.740Z,17.63
2024-04-08T00:25:20.496Z,17.60
2024-04-08T00:27:47.843Z,17.81
2024-04-08T00:30:15.167Z,17.95
2024-04-08T00:32:42.630Z,17.57
2024-04-08T00:35:09.952Z,17.28
2024-04-08T00:37:37.463Z,17.12
2024-04-08T00:40:05.391Z,17.06
2024-04-08T00:42:32.686Z,17.16
2024-04-08T00:44:59.994Z,17.50
2024-04-08T00:47:27.413Z,17.35
2024-04-08T00:49:54.765Z,17.18
2024-04-08T00:52:22.106Z,17.16
2024-04-08T00:54:49.716Z,17.03
2024-04-08T00:57:17.258Z,17.06
2024-04-08T00:59:44.618Z,16.89
2024-04-08T01:02:11.994Z,16.82
2024-04-08T01:04:39.597Z,16.59
2024-04-08T01:07:06.919Z,16.54
2024-04-08T01:09:34.274Z,16.60
2024-04-08T01:12:01.867Z,16.77
2024-04-08T01:14:29.217Z,16.91
2024-04-08T01:16:56.529Z,17.07
2024-04-08T01:19:24.794Z,17.31
2024-04-08T01:21:52.678Z,17.38
2024-04-08T01:24:20.020Z,17.40
2024-04-08T01:26:47.586Z,17.47
2024-04-08T01:29:14.959Z,17.60
2024-04-08T01:31:42.260Z,17.69
2024-04-08T01:34:09.604Z,17.68
2024-04-08T01:36:36.914Z,17.61
2024-04-08T01:39:04.787Z,17.60
2024-04-08T01:41:32.899Z,17.68
2024-04-08T01:44:00.182Z,17.75
2024-04-08T01:46:27.467Z,17.84
2024-04-08T01:48:54.772Z,17.91
2024-04-08T01:51:22.094Z,17.95
2024-04-08T01:53:49.487Z,17.49
2024-04-08T01:56:17.029Z,17.51
2024-04-08T01:58:44.444Z,17.76
2024-04-08T02:01:11.778Z,17.93
2024-04-08T02:03:39.068Z,17.98
2024-04-08T02:06:06.431Z,17.91
2024-04-08T02:08:33.752Z,17.88
2024-04-08T02:11:01.256Z,17.99
2024-04-08T02:13:28.582Z,18.06
2024-04-08T02:15:55.882Z,18.00
2024-04-08T02:18:23.177Z,17.88
2024-04-08T02:20:50.527Z,17.91
2024-04-08T02:23:17.862Z,17.99
2024-04-08T02:25:45.188Z,18.06
2024-04-08T02:28:13.113Z,18.03
2024-04-08T02:30:40.449Z,18.01
2024-04-08T02:33:07.807Z,17.68
2024-04-08T02:35:38.625Z,17.56
2024-04-08T02:38:06.453Z,17.70
2024-04-08T02:40:33.989Z,17.51
2024-04-08T02:43:02.365Z,17.34
2024-04-08T02:45:29.914Z,17.39
2024-04-08T02:48:00.372Z,17.40
2024-04-08T02:50:28.273Z,17.61
2024-04-08T02:52:55.631Z,17.78
2024-04-08T02:55:23.840Z,17.81
2024-04-08T02:57:51.170Z,17.87
2024-04-08T03:00:18.578Z,17.81
2024-04-08T03:02:46.896Z,17.78
2024-04-08T03:05:15.603Z,17.49
2024-04-08T03:07:42.952Z,17.55
2024-04-08T03:10:10.268Z,17.52
2024-04-08T03:12:37.735Z,17.58
2024-04-08T03:15:05.382Z,17.59
2024-04-08T03:17:32.740Z,17.66
2024-04-08T03:20:00.075Z,17.60
2024-04-08T03:22:27.397Z,17.59
2024-04-08T03:24:54.743Z,17.54
2024-04-08T03:27:22.038Z,17.51
2024-04-08T03:29:51.302Z,17.62
2024-04-08T03:32:18.624Z,17.54
2024-04-08T03:34:46.006Z,17.56
2024-04-08T03:37:13.416Z,17.60
2024-04-08T03:39:40.727Z,17.56
2024-04-08T03:42:08.130Z,17.51
2024-04-08T03:44:36.274Z,17.56
2024-04-08T03:47:03.608Z,17.47
2024-04-08T03:49:30.986Z,17.29
2024-04-08T03:51:58.275Z,17.27
2024-04-08T03:54:25.582Z,17.29
2024-04-08T03:56:52.958Z,17.38
2024-04-08T03:59:20.350Z,17.39
2024-04-08T04:01:47.631Z,17.38
2024-04-08T04:04:14.957Z,17.46
2024-04-08T04:06:42.243Z,17.28
2024-04-08T04:09:12.084Z,17.09
2024-04-08T04:11:39.555Z,17.12
2024-04-08T04:14:06.869Z,17.21
2024-04-08T04:16:34.189Z,17.35
2024-04-08T04:19:01.471Z,17.21
2024-04-08T04:21:28.778Z,17.21
2024-04-08T04:23:56.101Z,17.15
2024-04-08T04:26:23.448Z,17.34
2024-04-08T04:28:50.770Z,17.32
2024-04-08T04:31:18.127Z,17.07
2024-04-08T04:33:45.522Z,17.15
2024-04-08T04:36:12.824Z,17.25
2024-04-08T04:38:40.194Z,17.29
2024-04-08T04:41:08.451Z,17.22
2024-04-08T04:43:35.850Z,17.29
2024-04-08T04:46:03.296Z,17.14
2024-04-08T04:48:30.711Z,17.20
2024-04-08T04:50:58.100Z,16.92
2024-04-08T04:53:25.472Z,16.83
2024-04-08T04:55:54.064Z,16.79
2024-04-08T04:58:22.324Z,16.89
2024-04-08T05:00:52.722Z,16.94
2024-04-08T05:03:20.412Z,17.12
2024-04-08T05:05:58.073Z,17.22
2024-04-08T05:08:25.974Z,17.27
2024-04-08T05:10:53.444Z,17.36
2024-04-08T05:13:20.992Z,17.38
2024-04-08T05:16:01.790Z,17.49
2024-04-08T05:18:30.086Z,17.45
2024-04-08T05:20:58.204Z,17.43
2024-04-08T05:23:27.104Z,17.45
2024-04-08T05:25:57.630Z,17.14
2024-04-08T05:28:25.110Z,17.04
2024-04-08T05:30:52.901Z,16.82
2024-04-08T05:33:20.324Z,17.05
2024-04-08T05:35:48.237Z,17.25
2024-04-08T05:38:16.246Z,17.34
2024-04-08T05:40:44.070Z,17.32
2024-04-08T05:43:11.440Z,17.27
2024-04-08T05:45:38.799Z,17.30
2024-04-08T05:48:06.865Z,17.43
2024-04-08T05:50:34.300Z,17.72
2024-04-08T05:53:01.970Z,17.72
2024-04-08T05:55:31.815Z,17.74
2024-04-08T05:57:59.332Z,17.74
2024-04-08T06:00:26.702Z,17.48
2024-04-08T06:02:55.912Z,17.59
2024-04-08T06:05:25.658Z,17.49
2024-04-08T06:07:54.430Z,17.52
2024-04-08T06:10:23.576Z,17.39
2024-04-08T06:12:53.611Z,17.33
2024-04-08T06:15:20.998Z,17.11
2024-04-08T06:17:48.401Z,17.20
2024-04-08T06:20:15.877Z,17.21
2024-04-08T06:22:45.883Z,17.18
2024-04-08T06:25:13.212Z,17.16
2024-04-08T06:27:40.531Z,17.24
2024-04-08T06:30:08.260Z,17.15
2024-04-08T06:32:36.640Z,17.13
2024-04-08T06:35:04.102Z,17.29
2024-04-08T06:37:31.415Z,17.51
2024-04-08T06:39:58.732Z,17.41
2024-04-08T06:42:26.050Z,17.51
2024-04-08T06:44:56.501Z,17.48
2024-04-08T06:47:25.786Z,17.37
2024-04-08T06:49:53.127Z,17.55
2024-04-08T06:52:20.890Z,17.46
2024-04-08T06:54:48.225Z,17.66
2024-04-08T06:57:15.695Z,17.73
2024-04-08T06:59:43.096Z,17.61
2024-04-08T07:02:10.539Z,17.88
2024-04-08T07:04:37.974Z,18.06
2024-04-08T07:07:06.637Z,18.07
2024-04-08T07:09:34.735Z,18.28
2024-04-08T07:12:04.474Z,17.75
2024-04-08T07:14:32.390Z,17.79
2024-04-08T07:17:02.436Z,18.17
2024-04-08T07:19:29.766Z,18.42
2024-04-08T07:21:57.109Z,18.49
2024-04-08T07:24:24.414Z,18.57
2024-04-08T07:26:51.801Z,18.89
2024-04-08T07:29:19.285Z,19.13
2024-04-08T07:31:46.808Z,18.61
2024-04-08T07:34:14.271Z,18.46
2024-04-08T07:36:41.748Z,18.11
2024-04-08T07:39:13.144Z,17.71
2024-04-08T07:41:41.041Z,17.51
2024-04-08T07:44:09.020Z,17.45
2024-04-08T07:46:36.935Z,17.67
2024-04-08T07:49:04.446Z,18.00
2024-04-08T07:51:32.010Z,18.26
2024-04-08T07:54:01.144Z,18.28
2024-04-08T07:56:28.628Z,18.16
2024-04-08T07:58:55.960Z,18.11
2024-04-08T08:01:23.707Z,17.92
2024-04-08T08:03:51.261Z,17.88
2024-04-08T08:06:18.768Z,17.85
2024-04-08T08:08:48.916Z,17.78
2024-04-08T08:11:16.862Z,17.86
2024-04-08T08:13:44.224Z,18.21
2024-04-08T08:16:11.583Z,18.13
2024-04-08T08:18:39.257Z,18.18
2024-04-08T08:21:07.660Z,18.09
2024-04-08T08:23:35.041Z,18.10
2024-04-08T08:26:02.360Z,18.30
2024-04-08T08:28:29.740Z,18.37
2024-04-08T08:30:59.509Z,18.47
2024-04-08T08:33:27.175Z,18.51
2024-04-08T08:35:54.557Z,18.55
2024-04-08T08:38:21.994Z,18.83
2024-04-08T08:40:55.363Z,18.83
2024-04-08T08:43:30.302Z,18.98
2024-04-08T08:45:57.918Z,19.06
2024-04-08T08:48:25.680Z,19.05
2024-04-08T08:50:53.140Z,19.14
2024-04-08T08:53:20.612Z,19.40
2024-04-08T08:55:48.533Z,19.59
2024-04-08T08:58:16.005Z,19.77
2024-04-08T09:00:43.389Z,19.71
2024-04-08T09:03:18.408Z,19.55
2024-04-08T09:05:47.775Z,19.60
2024-04-08T09:08:15.244Z,19.43
2024-04-08T09:10:47.050Z,19.40
2024-04-08T09:13:27.870Z,19.35
2024-04-08T09:15:55.242Z,19.43
2024-04-08T09:18:23.354Z,19.62
2024-04-08T09:20:51.347Z,19.63
2024-04-08T09:23:19.070Z,19.78
2024-04-08T09:25:46.647Z,19.79
2024-04-08T09:28:14.279Z,19.84
2024-04-08T09:30:42.668Z,20.09
2024-04-08T09:33:14.216Z,20.33
2024-04-08T09:35:43.419Z,20.36
2024-04-08T09:38:12.321Z,20.35
2024-04-08T09:40:41.147Z,20.20
2024-04-08T09:43:12.777Z,20.27
2024-04-08T09:45:41.871Z,20.40
2024-04-08T09:48:13.736Z,20.70
2024-04-08T09:50:44.654Z,20.98
2024-04-08T09:53:12.334Z,21.40
2024-04-08T09:55:46.488Z,21.86
2024-04-08T09:58:21.720Z,22.39
2024-04-08T10:00:49.384Z,22.61
2024-04-08T10:03:17.367Z,22.82
2024-04-08T10:05:45.503Z,22.99
2024-04-08T10:08:13.353Z,23.20
2024-04-08T10:10:40.753Z,23.52
2024-04-08T10:13:10.663Z,23.88
2024-04-08T10:15:38.273Z,24.08
2024-04-08T10:18:06.194Z,24.16
2024-04-08T10:20:33.726Z,24.00
2024-04-08T10:23:01.056Z,24.35
2024-04-08T10:25:38.870Z,24.75
2024-04-08T10:28:21.910Z,25.00
2024-04-08T10:30:52.278Z,25.13
2024-04-08T10:33:19.829Z,24.89
2024-04-08T10:35:47.532Z,24.92
2024-04-08T10:38:15.015Z,25.33
2024-04-08T10:40:46.696Z,25.50
2024-04-08T10:43:16.988Z,25.64
2024-04-08T10:45:44.471Z,25.68
2024-04-08T10:48:13.369Z,25.66
2024-04-08T10:50:40.946Z,25.57
2024-04-08T10:53:08.309Z,26.10
2024-04-08T10:55:35.673Z,26.27
2024-04-08T10:58:02.999Z,26.49
2024-04-08T11:00:30.453Z,26.66
2024-04-08T11:02:57.901Z,26.65
2024-04-08T11:05:25.464Z,26.56
2024-04-08T11:07:53.034Z,26.47
2024-04-08T11:10:20.392Z,26.58
2024-04-08T11:12:47.726Z,26.59
2024-04-08T11:15:15.830Z,26.84
2024-04-08T11:17:43.418Z,26.66
2024-04-08T11:20:18.094Z,26.78
2024-04-08T11:22:45.695Z,26.71
2024-04-08T11:25:17.208Z,26.90
2024-04-08T11:27:45.674Z,26.93
2024-04-08T11:30:17.495Z,27.11
2024-04-08T11:32:45.902Z,26.78
2024-04-08T11:35:13.862Z,26.83
2024-04-08T11:37:44.307Z,27.14
2024-04-08T11:40:13.783Z,27.13
2024-04-08T11:42:41.338Z,27.01
2024-04-08T11:45:09.556Z,26.91
2024-04-08T11:47:38.565Z,26.82
2024-04-08T11:50:06.556Z,26.88
2024-04-08T11:52:34.703Z,26.70
2024-04-08T11:55:03.599Z,26.81
2024-04-08T11:57:32.512Z,26.94
2024-04-08T11:59:59.928Z,26.69
2024-04-08T12:02:27.278Z,26.55
2024-04-08T12:04:57.886Z,26.75
2024-04-08T12:07:25.288Z,26.85
2024-04-08T12:09:52.617Z,26.89
2024-04-08T12:12:20.174Z,26.94
2024-04-08T12:14:49.102Z,27.05
2024-04-08T12:17:16.591Z,26.93
2024-04-08T12:19:45.614Z,26.71
2024-04-08T12:22:13.775Z,26.85
2024-04-08T12:24:41.179Z,26.70
2024-04-08T12:27:09.360Z,26.57
2024-04-08T12:29:36.667Z,26.81
2024-04-08T12:32:04.094Z,26.77
2024-04-08T12:34:31.435Z,26.64
2024-04-08T12:36:59.059Z,26.52
2024-04-08T12:39:26.445Z,26.56
2024-04-08T12:41:53.960Z,26.61
2024-04-08T12:44:21.301Z,26.51
2024-04-08T12:46:49.198Z,26.62
2024-04-08T12:49:16.964Z,26.54
2024-04-08T12:51:47.441Z,26.47
2024-04-08T12:54:16.795Z,26.60
2024-04-08T12:56:44.396Z,26.52
2024-04-08T12:59:11.876Z,26.57
2024-04-08T13:01:39.336Z,26.69
2024-04-08T13:04:06.852Z,26.78
2024-04-08T13:06:34.234Z,26.87
2024-04-08T13:09:01.988Z,26.98
2024-04-08T13:11:29.424Z,26.81
2024-04-08T13:13:57.627Z,26.74
2024-04-08T13:16:25.051Z,26.73
2024-04-08T13:18:53.089Z,26.66
2024-04-08T13:21:26.312Z,26.53
2024-04-08T13:23:54.873Z,26.54
2024-04-08T13:26:23.454Z,26.54
2024-04-08T13:28:50.805Z,26.59
2024-04-08T13:31:18.129Z,26.56
2024-04-08T13:33:45.594Z,26.59
2024-04-08T13:36:14.027Z,26.74
2024-04-08T13:38:41.616Z,26.75
2024-04-08T13:41:09.596Z,26.70
2024-04-08T13:43:36.907Z,26.78
2024-04-08T13:46:04.460Z,26.76
2024-04-08T13:48:32.019Z,26.69
2024-04-08T13:50:59.682Z,26.67
2024-04-08T13:53:27.706Z,26.54
2024-04-08T13:56:01.459Z,26.45
2024-04-08T13:58:29.194Z,26.51
2024-04-08T14:00:57.377Z,26.54
2024-04-08T14:03:28.728Z,26.43
2024-04-08T14:05:57.213Z,26.39
2024-04-08T14:08:25.583Z,26.46
2024-04-08T14:10:53.112Z,26.51
2024-04-08T14:13:20.547Z,26.54
2024-04-08T14:15:47.917Z,26.61
2024-04-08T14:18:15.473Z,26.57
2024-04-08T14:20:44.055Z,26.52
2024-04-08T14:23:11.497Z,26.62
2024-04-08T14:25:38.998Z,26.70
2024-04-08T14:28:06.546Z,26.70
2024-04-08T14:30:35.548Z,26.83
2024-04-08T14:33:03.246Z,26.89
2024-04-08T14:35:30.714Z,26.87
2024-04-08T14:38:21.575Z,26.87
2024-04-08T14:40:46.234Z,26.94
2024-04-08T14:43:25.733Z,26.89
2024-04-08T14:45:58.291Z,26.92
2024-04-08T14:48:26.204Z,26.86
2024-04-08T14:50:53.576Z,26.87
2024-04-08T14:53:21.109Z,26.88
2024-04-08T14:55:48.940Z,27.00
2024-04-08T14:58:16.630Z,26.98
2024-04-08T15:00:44.045Z,26.92
2024-04-08T15:03:12.969Z,26.80
2024-04-08T15:05:44.456Z,26.80
2024-04-08T15:08:15.687Z,26.88
2024-04-08T15:10:43.136Z,26.94
2024-04-08T15:13:10.467Z,26.92
2024-04-08T15:15:38.044Z,27.00
2024-04-08T15:18:05.620Z,27.03
2024-04-08T15:20:33.385Z,26.94
2024-04-08T15:23:00.732Z,26.86
2024-04-08T15:25:28.132Z,26.72
2024-04-08T15:27:55.534Z,26.78
2024-04-08T15:30:22.862Z,26.82
2024-04-08T15:32:50.427Z,26.88
2024-04-08T15:35:17.897Z,26.92
2024-04-08T15:37:45.247Z,26.81
2024-04-08T15:40:12.608Z,26.70
2024-04-08T15:42:40.373Z,26.64
2024-04-08T15:45:08.079Z,26.58
2024-04-08T15:47:35.712Z,26.62
2024-04-08T15:50:04.686Z,26.57
2024-04-08T15:52:31.990Z,26.57
2024-04-08T15:54:59.313Z,26.67
2024-04-08T15:57:26.777Z,26.74
2024-04-08T15:59:54.324Z,26.75
2024-04-08T16:02:23.088Z,26.71
2024-04-08T16:04:50.815Z,26.64
2024-04-08T16:07:19.170Z,26.67
2024-04-08T16:09:46.460Z,26.69
2024-04-08T16:12:13.796Z,26.58
2024-04-08T16:14:41.148Z,26.78
2024-04-08T16:17:11.018Z,26.80
2024-04-08T16:19:41.972Z,26.92
2024-04-08T16:22:09.606Z,26.93
2024-04-08T16:24:38.825Z,26.80
2024-04-08T16:27:06.510Z,26.85
2024-04-08T16:29:33.845Z,26.62
2024-04-08T16:32:04.277Z,26.45
2024-04-08T16:34:31.734Z,26.23
2024-04-08T16:36:59.203Z,26.31
2024-04-08T16:39:26.813Z,26.04
2024-04-08T16:41:54.204Z,26.13
2024-04-08T16:44:21.538Z,25.81
2024-04-08T16:46:51.667Z,25.60
2024-04-08T16:49:19.815Z,25.66
2024-04-08T16:51:47.495Z,25.65
2024-04-08T16:54:14.996Z,25.51
2024-04-08T16:56:42.358Z,25.24
2024-04-08T16:59:09.718Z,25.17
2024-04-08T17:01:37.096Z,25.10
2024-04-08T17:04:07.895Z,25.13
2024-04-08T17:06:47.849Z,25.01
2024-04-08T17:09:15.234Z,24.90
2024-04-08T17:11:42.696Z,24.94
2024-04-08T17:14:10.051Z,25.06
2024-04-08T17:16:37.475Z,25.02
2024-04-08T17:19:06.224Z,24.89
2024-04-08T17:21:36.727Z,24.66
2024-04-08T17:24:05.508Z,24.50
2024-04-08T17:26:32.868Z,24.37
2024-04-08T17:29:00.173Z,24.32
2024-04-08T17:31:27.589Z,24.42
2024-04-08T17:33:55.000Z,24.35
2024-04-08T17:36:22.510Z,24.39
2024-04-08T17:38:49.930Z,24.35
2024-04-08T17:41:21.330Z,24.22
2024-04-08T17:43:56.754Z,24.07
2024-04-08T17:46:24.223Z,23.90
2024-04-08T17:48:51.764Z,23.71
2024-04-08T17:51:19.414Z,23.67
2024-04-08T17:53:46.927Z,23.59
2024-04-08T17:56:15.580Z,23.54
2024-04-08T17:58:45.095Z,23.35
2024-04-08T18:01:19.511Z,23.34
2024-04-08T18:03:50.411Z,23.20
2024-04-08T18:06:19.707Z,23.12
2024-04-08T18:08:48.458Z,23.10
2024-04-08T18:11:16.042Z,23.04
2024-04-08T18:13:44.380Z,22.95
2024-04-08T18:16:16.902Z,22.84
2024-04-08T18:18:52.273Z,22.77
2024-04-08T18:21:21.211Z,22.43
2024-04-08T18:23:50.899Z,22.01
2024-04-08T18:26:20.102Z,22.11
2024-04-08T18:28:56.685Z,22.22
2024-04-08T18:31:24.395Z,22.07
2024-04-08T18:33:54.699Z,22.07
2024-04-08T18:36:22.534Z,22.03
2024-04-08T18:38:51.371Z,21.95
2024-04-08T18:41:22.253Z,21.86
2024-04-08T18:43:50.954Z,21.75
2024-04-08T18:46:25.619Z,21.75
2024-04-08T18:48:54.095Z,21.75
2024-04-08T18:51:22.373Z,21.71
2024-04-08T18:53:55.349Z,21.63
2024-04-08T18:56:24.876Z,21.56
2024-04-08T18:58:53.757Z,21.52
2024-04-08T19:01:23.081Z,21.38
2024-04-08T19:03:53.430Z,21.27
2024-04-08T19:06:21.167Z,21.22
2024-04-08T19:08:49.968Z,21.15
2024-04-08T19:11:18.558Z,21.06
2024-04-08T19:13:48.068Z,20.99
2024-04-08T19:16:15.540Z,20.95
2024-04-08T19:18:42.952Z,20.92
2024-04-08T19:21:10.324Z,20.81
2024-04-08T19:23:37.797Z,20.68
2024-04-08T19:26:05.312Z,20.47
2024-04-08T19:28:33.776Z,20.34
2024-04-08T19:31:01.986Z,20.28
2024-04-08T19:33:29.390Z,20.31
2024-04-08T19:35:57.400Z,20.35
2024-04-08T19:38:28.493Z,20.34
2024-04-08T19:41:03.067Z,20.31
2024-04-08T19:43:30.542Z,20.21
2024-04-08T19:46:06.465Z,19.89
2024-04-08T19:48:40.067Z,19.75
2024-04-08T19:51:15.226Z,19.92
2024-04-08T19:53:44.762Z,19.92
2024-04-08T19:56:17.467Z,20.04
2024-04-08T19:58:45.581Z,20.06
2024-04-08T20:01:16.321Z,20.09
2024-04-08T20:03:44.298Z,20.05
2024-04-08T20:06:12.004Z,20.00
2024-04-08T20:08:40.720Z,19.87
2024-04-08T20:11:12.327Z,19.80
2024-04-08T20:13:44.020Z,19.66
2024-04-08T20:16:17.264Z,19.66
2024-04-08T20:18:47.448Z,19.45
2024-04-08T20:21:16.282Z,19.47
2024-04-08T20:23:44.059Z,19.41
2024-04-08T20:26:11.407Z,19.36
2024-04-08T20:28:38.747Z,19.33
2024-04-08T20:31:07.821Z,19.24
2024-04-08T20:33:35.344Z,19.27
2024-04-08T20:36:04.499Z,19.19
2024-04-08T20:38:32.222Z,19.22
2024-04-08T20:41:03.760Z,19.17
2024-04-08T20:43:35.499Z,19.13
2024-04-08T20:46:03.003Z,19.01
2024-04-08T20:48:30.466Z,18.94
2024-04-08T20:50:59.232Z,18.84
2024-04-08T20:53:27.450Z,18.60
2024-04-08T20:55:58.567Z,18.57
2024-04-08T20:58:26.279Z,18.49
2024-04-08T21:00:56.926Z,18.29
2024-04-08T21:03:24.486Z,18.15
2024-04-08T21:06:05.805Z,18.27
2024-04-08T21:08:33.216Z,18.24
2024-04-08T21:11:01.391Z,18.18
2024-04-08T21:13:31.020Z,18.16
2024-04-08T21:15:59.606Z,18.14
2024-04-08T21:18:27.542Z,18.04
2024-04-08T21:21:08.519Z,18.14
2024-04-08T21:23:36.893Z,18.08
2024-04-08T21:26:11.926Z,17.82
2024-04-08T21:28:40.201Z,17.80
2024-04-08T21:31:08.247Z,17.77
2024-04-08T21:33:36.247Z,17.78
2024-04-08T21:36:04.281Z,17.79
2024-04-08T21:38:31.684Z,17.78
2024-04-08T21:41:00.821Z,17.67
2024-04-08T21:43:28.435Z,17.62
2024-04-08T21:45:57.971Z,17.66
2024-04-08T21:48:25.744Z,17.68
2024-04-08T21:50:53.533Z,17.60
2024-04-08T21:53:27.884Z,17.61
2024-04-08T21:56:02.632Z,17.64
2024-04-08T21:58:31.234Z,17.39
2024-04-08T22:00:58.803Z,17.38
2024-04-08T22:03:27.277Z,17.36
2024-04-08T22:05:55.172Z,17.34
2024-04-08T22:08:22.632Z,17.28
2024-04-08T22:10:51.056Z,17.27
2024-04-08T22:13:19.178Z,17.33
2024-04-08T22:15:46.736Z,17.23
2024-04-08T22:18:14.496Z,17.27
2024-04-08T22:20:42.005Z,17.26
2024-04-08T22:23:09.672Z,17.31
2024-04-08T22:25:37.386Z,17.14
2024-04-08T22:28:05.281Z,17.17
2024-04-08T22:30:33.043Z,17.26
2024-04-08T22:33:00.718Z,17.07
2024-04-08T22:35:28.339Z,17.06
2024-04-08T22:37:55.796Z,16.92
2024-04-08T22:40:23.284Z,17.03
2024-04-08T22:42:51.023Z,17.02
2024-04-08T22:45:18.642Z,16.94
2024-04-08T22:47:47.319Z,16.99
2024-04-08T22:50:15.983Z,16.82
2024-04-08T22:52:44.628Z,16.80
2024-04-08T22:55:12.579Z,16.82
2024-04-08T22:57:44.510Z,16.91
2024-04-08T23:00:12.735Z,16.93
2024-04-08T23:02:40.556Z,16.93
2024-04-08T23:05:08.715Z,16.85
2024-04-08T23:07:36.141Z,16.91
2024-04-08T23:10:05.044Z,16.93
2024-04-08T23:12:32.866Z,16.94
2024-04-08T23:15:00.349Z,16.97
2024-04-08T23:17:28.075Z,16.89
2024-04-08T23:19:55.529Z,16.86
2024-04-08T23:22:22.937Z,16.95
2024-04-08T23:24:50.243Z,16.79
2024-04-08T23:27:17.743Z,16.81
2024-04-08T23:29:45.405Z,16.77
2024-04-08T23:32:12.723Z,16.83
2024-04-08T23:34:40.567Z,16.75
2024-04-08T23:37:08.461Z,16.62
2024-04-08T23:39:36.295Z,16.70
2024-04-08T23:42:03.734Z,16.82
2024-04-08T23:44:31.760Z,16.94
2024-04-08T23:46:59.974Z,16.89
2024-04-08T23:49:27.310Z,16.78
2024-04-08T23:51:54.603Z,16.85
2024-04-08T23:54:21.947Z,16.90
2024-04-08T23:56:49.291Z,16.90
2024-04-08T23:59:16.603Z,16.84
